createdAt,value
2023-07-26T00:01:01.016Z,21.60
2023-07-26T00:03:28.499Z,27.00
2023-07-26T00:05:55.846Z,26.60
2023-07-26T00:08:23.184Z,17.90
2023-07-26T00:10:50.469Z,18.50
2023-07-26T00:13:18.055Z,20.30
2023-07-26T00:15:45.618Z,26.70
2023-07-26T00:18:13.066Z,21.40
2023-07-26T00:20:40.494Z,17.40
2023-07-26T00:23:07.817Z,23.60
2023-07-26T00:25:36.097Z,20.10
2023-07-26T00:28:03.455Z,18.90
2023-07-26T00:30:30.835Z,17.60
2023-07-26T00:32:58.270Z,18.20
2023-07-26T00:35:26.373Z,21.20
2023-07-26T00:37:53.720Z,15.80
2023-07-26T00:40:21.218Z,20.20
2023-07-26T00:42:48.616Z,18.80
2023-07-26T00:45:15.962Z,22.20
2023-07-26T00:47:43.336Z,20.50
2023-07-26T00:50:10.860Z,21.60
2023-07-26T00:52:38.625Z,18.70
2023-07-26T00:55:06.367Z,21.00
2023-07-26T00:57:33.885Z,21.40
2023-07-26T01:00:01.256Z,18.50
2023-07-26T01:02:28.635Z,17.80
2023-07-26T01:04:56.290Z,17.70
2023-07-26T01:07:32.674Z,19.40
2023-07-26T01:10:02.544Z,15.80
2023-07-26T01:12:43.834Z,15.80
2023-07-26T01:17:39.632Z,15.30
2023-07-26T01:20:07.433Z,16.80
2023-07-26T01:22:34.869Z,17.70
2023-07-26T01:25:02.349Z,17.20
2023-07-26T01:27:29.767Z,17.20
2023-07-26T01:29:58.105Z,15.90
2023-07-26T01:32:25.613Z,14.70
2023-07-26T01:34:53.084Z,22.00
2023-07-26T01:37:20.728Z,12.90
2023-07-26T01:39:49.269Z,17.30
2023-07-26T01:42:16.716Z,16.70
2023-07-26T01:44:44.046Z,18.90
2023-07-26T01:47:11.348Z,16.60
2023-07-26T01:49:38.685Z,19.70
2023-07-26T01:52:07.260Z,15.00
2023-07-26T01:54:34.774Z,17.60
2023-07-26T01:57:02.156Z,17.00
2023-07-26T01:59:29.934Z,21.40
2023-07-26T02:01:58.363Z,22.30
2023-07-26T02:04:26.053Z,21.00
2023-07-26T02:06:53.852Z,25.20
2023-07-26T02:09:21.197Z,15.10
2023-07-26T02:11:48.611Z,18.20
2023-07-26T02:14:17.150Z,19.70
2023-07-26T02:16:44.521Z,13.50
2023-07-26T02:19:11.921Z,16.00
2023-07-26T02:21:39.269Z,22.00
2023-07-26T02:24:06.641Z,11.00
2023-07-26T02:26:33.993Z,24.70
2023-07-26T02:29:01.513Z,17.60
2023-07-26T02:31:29.037Z,13.30
2023-07-26T02:33:56.650Z,14.00
2023-07-26T02:36:25.564Z,16.40
2023-07-26T02:38:52.979Z,23.70
2023-07-26T02:41:20.297Z,18.20
2023-07-26T02:43:47.681Z,18.40
2023-07-26T02:46:15.055Z,20.70
2023-07-26T02:48:42.427Z,18.60
2023-07-26T02:51:09.841Z,12.50
2023-07-26T02:53:37.217Z,15.00
2023-07-26T02:56:04.801Z,17.40
2023-07-26T02:58:32.230Z,16.90
2023-07-26T03:00:59.826Z,12.40
2023-07-26T03:03:27.442Z,17.00
2023-07-26T03:05:58.836Z,20.50
2023-07-26T03:08:26.221Z,22.60
2023-07-26T03:10:53.646Z,20.80
2023-07-26T03:13:21.044Z,14.10
2023-07-26T03:15:50.254Z,18.30
2023-07-26T03:18:17.954Z,16.40
2023-07-26T03:20:46.933Z,15.40
2023-07-26T03:23:14.808Z,17.70
2023-07-26T03:25:42.999Z,14.30
2023-07-26T03:28:10.291Z,14.80
2023-07-26T03:30:37.899Z,14.30
2023-07-26T03:33:05.469Z,16.70
2023-07-26T03:35:33.039Z,17.20
2023-07-26T03:38:00.413Z,11.60
2023-07-26T03:40:27.757Z,13.60
2023-07-26T03:42:55.130Z,18.10
2023-07-26T03:45:22.622Z,14.80
2023-07-26T03:47:50.111Z,15.10
2023-07-26T03:52:48.775Z,17.70
2023-07-26T03:55:16.197Z,18.30
2023-07-26T03:57:44.391Z,15.40
2023-07-26T04:00:12.971Z,15.30
2023-07-26T04:02:40.514Z,13.40
2023-07-26T04:05:08.316Z,23.10
2023-07-26T04:07:41.894Z,15.00
2023-07-26T04:10:10.090Z,17.10
2023-07-26T04:12:37.418Z,11.80
2023-07-26T04:15:05.652Z,19.10
2023-07-26T04:17:32.965Z,13.80
2023-07-26T04:20:00.262Z,12.80
2023-07-26T04:22:27.582Z,14.70
2023-07-26T04:24:54.918Z,17.80
2023-07-26T04:27:22.384Z,12.80
2023-07-26T04:29:49.763Z,14.40
2023-07-26T04:32:17.049Z,16.90
2023-07-26T04:34:44.459Z,11.40
2023-07-26T04:37:11.815Z,12.50
2023-07-26T04:39:39.163Z,11.00
2023-07-26T04:42:06.628Z,12.60
2023-07-26T04:44:33.939Z,14.80
2023-07-26T04:47:01.365Z,11.60
2023-07-26T04:49:28.853Z,14.20
2023-07-26T04:51:56.188Z,16.10
2023-07-26T04:54:23.488Z,19.80
2023-07-26T04:56:50.807Z,16.50
2023-07-26T04:59:18.146Z,16.10
2023-07-26T05:01:45.463Z,13.60
2023-07-26T05:04:12.764Z,14.00
2023-07-26T05:06:40.097Z,13.40
2023-07-26T05:09:07.467Z,14.40
2023-07-26T05:11:35.195Z,14.10
2023-07-26T05:14:03.287Z,13.80
2023-07-26T05:16:30.688Z,14.70
2023-07-26T05:19:00.178Z,15.00
2023-07-26T05:21:27.609Z,10.40
2023-07-26T05:23:54.962Z,10.50
2023-07-26T05:26:22.361Z,13.30
2023-07-26T05:28:49.679Z,9.80
2023-07-26T05:31:18.143Z,11.20
2023-07-26T05:33:45.516Z,12.20
2023-07-26T05:36:52.536Z,13.30
2023-07-26T05:39:19.908Z,14.10
2023-07-26T05:41:47.255Z,12.40
2023-07-26T05:44:14.683Z,12.70
2023-07-26T05:46:42.038Z,11.30
2023-07-26T05:49:10.848Z,11.10
2023-07-26T05:51:38.332Z,19.20
2023-07-26T05:54:05.630Z,11.70
2023-07-26T05:56:32.923Z,11.60
2023-07-26T05:59:00.296Z,12.10
2023-07-26T06:01:28.352Z,13.00
2023-07-26T06:03:55.742Z,14.30
2023-07-26T06:06:23.117Z,11.80
2023-07-26T06:08:52.159Z,13.30
2023-07-26T06:11:19.526Z,14.70
2023-07-26T06:13:47.233Z,15.70
2023-07-26T06:16:14.580Z,11.50
2023-07-26T06:18:41.934Z,13.10
2023-07-26T06:21:10.443Z,15.70
2023-07-26T06:23:37.779Z,12.40
2023-07-26T06:26:05.163Z,14.00
2023-07-26T06:28:32.607Z,11.30
2023-07-26T06:31:00.734Z,15.20
2023-07-26T06:33:28.101Z,11.50
2023-07-26T06:35:55.979Z,14.00
2023-07-26T06:38:23.422Z,11.70
2023-07-26T06:40:51.121Z,14.60
2023-07-26T06:43:18.454Z,12.90
2023-07-26T06:45:51.711Z,14.50
2023-07-26T06:48:19.583Z,9.70
2023-07-26T06:50:47.014Z,7.90
2023-07-26T06:53:14.349Z,13.00
2023-07-26T06:55:41.682Z,8.20
2023-07-26T06:58:09.383Z,10.30
2023-07-26T07:00:36.725Z,12.60
2023-07-26T07:03:04.683Z,12.80
2023-07-26T07:05:39.414Z,9.00
2023-07-26T07:08:06.788Z,10.40
2023-07-26T07:10:34.182Z,12.30
2023-07-26T07:13:01.517Z,8.70
2023-07-26T07:15:28.850Z,10.00
2023-07-26T07:18:09.511Z,12.60
2023-07-26T07:20:42.286Z,8.70
2023-07-26T07:23:10.625Z,9.40
2023-07-26T07:25:39.825Z,8.20
2023-07-26T07:28:07.222Z,6.80
2023-07-26T07:30:36.797Z,12.80
2023-07-26T07:33:04.547Z,9.60
2023-07-26T07:35:32.060Z,9.80
2023-07-26T07:37:59.445Z,8.80
2023-07-26T07:40:27.660Z,12.70
2023-07-26T07:42:55.071Z,12.20
2023-07-26T07:45:22.482Z,10.30
2023-07-26T07:47:49.832Z,19.50
2023-07-26T07:50:17.738Z,7.60
2023-07-26T07:52:45.556Z,9.00
2023-07-26T07:55:12.887Z,8.80
2023-07-26T07:57:40.311Z,9.20
2023-07-26T08:00:10.445Z,10.50
2023-07-26T08:02:40.598Z,10.00
2023-07-26T08:05:08.168Z,7.60
2023-07-26T08:07:35.600Z,10.70
2023-07-26T08:10:03.261Z,9.40
2023-07-26T08:12:30.614Z,8.50
2023-07-26T08:14:57.961Z,7.20
2023-07-26T08:17:25.673Z,7.50
2023-07-26T08:19:53.007Z,10.70
2023-07-26T08:22:20.405Z,8.70
2023-07-26T08:24:51.849Z,11.00
2023-07-26T08:27:19.971Z,12.40
2023-07-26T08:29:47.403Z,11.40
2023-07-26T08:32:14.817Z,10.50
2023-07-26T08:34:42.204Z,9.00
2023-07-26T08:37:10.314Z,8.10
2023-07-26T08:39:37.734Z,11.90
2023-07-26T08:42:05.469Z,12.80
2023-07-26T08:44:32.826Z,10.20
2023-07-26T08:47:00.793Z,6.50
2023-07-26T08:49:28.342Z,7.90
2023-07-26T08:51:57.567Z,5.40
2023-07-26T08:54:26.036Z,9.30
2023-07-26T08:56:53.368Z,9.20
2023-07-26T08:59:20.713Z,6.80
2023-07-26T09:02:01.775Z,8.60
2023-07-26T09:04:31.826Z,9.40
2023-07-26T09:07:05.738Z,9.60
2023-07-26T09:09:34.309Z,6.30
2023-07-26T09:12:02.050Z,10.10
2023-07-26T09:26:43.331Z,13.50
2023-07-26T09:29:14.585Z,14.20
2023-07-26T09:31:44.328Z,12.70
2023-07-26T09:34:16.115Z,8.50
2023-07-26T09:36:49.236Z,10.20
2023-07-26T09:39:18.087Z,8.50
2023-07-26T09:41:47.043Z,9.00
2023-07-26T09:44:16.883Z,9.80
2023-07-26T09:46:51.851Z,10.30
2023-07-26T09:54:34.376Z,11.10
2023-07-26T09:57:04.984Z,15.30
2023-07-26T09:59:32.701Z,9.90
2023-07-26T10:02:07.821Z,13.60
2023-07-26T10:04:40.256Z,11.60
2023-07-26T10:07:12.917Z,8.10
2023-07-26T10:09:48.392Z,10.30
2023-07-26T10:12:16.247Z,9.70
2023-07-26T10:14:43.783Z,10.40
2023-07-26T10:17:11.757Z,9.40
2023-07-26T10:19:39.145Z,11.20
2023-07-26T10:22:08.257Z,14.10
2023-07-26T10:24:35.662Z,11.80
2023-07-26T10:27:03.381Z,12.20
2023-07-26T10:29:30.732Z,7.30
2023-07-26T10:32:04.834Z,7.60
2023-07-26T10:34:32.232Z,8.30
2023-07-26T10:36:59.612Z,10.50
2023-07-26T10:39:31.469Z,7.30
2023-07-26T10:41:58.896Z,7.00
2023-07-26T10:44:26.303Z,6.40
2023-07-26T10:47:11.882Z,7.00
2023-07-26T10:49:39.309Z,6.20
2023-07-26T10:52:07.206Z,7.60
2023-07-26T10:54:47.770Z,7.20
2023-07-26T10:57:27.657Z,7.90
2023-07-26T11:00:02.714Z,7.90
2023-07-26T11:02:46.444Z,7.10
2023-07-26T11:05:18.626Z,5.50
2023-07-26T11:07:49.733Z,9.10
2023-07-26T11:10:24.164Z,6.00
2023-07-26T11:13:12.015Z,7.80
2023-07-26T11:16:11.159Z,8.50
2023-07-26T11:18:30.965Z,4.90
2023-07-26T11:20:58.411Z,5.80
2023-07-26T11:23:28.208Z,5.70
2023-07-26T11:26:05.147Z,6.50
2023-07-26T11:28:34.226Z,5.20
2023-07-26T11:31:02.182Z,4.90
2023-07-26T11:33:33.118Z,3.80
2023-07-26T11:36:02.054Z,4.80
2023-07-26T11:38:29.501Z,5.80
2023-07-26T11:40:59.822Z,4.10
2023-07-26T11:43:31.102Z,7.20
2023-07-26T11:45:58.687Z,6.70
2023-07-26T11:48:32.335Z,6.50
2023-07-26T11:51:06.851Z,4.10
2023-07-26T11:53:45.448Z,6.20
2023-07-26T11:56:16.060Z,6.80
2023-07-26T11:58:45.360Z,5.10
2023-07-26T12:01:13.696Z,5.90
2023-07-26T12:03:41.733Z,4.00
2023-07-26T12:06:10.818Z,5.50
2023-07-26T12:08:39.523Z,6.10
2023-07-26T12:11:08.136Z,3.50
2023-07-26T12:13:36.366Z,4.30
2023-07-26T12:16:04.687Z,6.30
2023-07-26T12:18:33.304Z,6.90
2023-07-26T12:21:05.528Z,6.10
2023-07-26T12:23:53.198Z,4.90
2023-07-26T12:26:42.808Z,4.50
2023-07-26T12:29:10.156Z,6.60
2023-07-26T12:31:40.531Z,5.10
2023-07-26T12:34:14.863Z,5.20
2023-07-26T12:36:42.705Z,5.10
2023-07-26T12:39:10.846Z,3.50
2023-07-26T12:41:42.420Z,9.70
2023-07-26T12:44:12.432Z,5.70
2023-07-26T12:49:11.802Z,7.10
2023-07-26T12:51:39.753Z,5.10
2023-07-26T12:54:07.280Z,6.50
2023-07-26T12:56:35.225Z,5.30
2023-07-26T12:59:08.074Z,5.30
2023-07-26T13:01:38.990Z,5.10
2023-07-26T13:04:07.329Z,6.60
2023-07-26T13:06:35.196Z,6.90
2023-07-26T13:09:02.771Z,8.20
2023-07-26T13:11:30.167Z,8.60
2023-07-26T13:13:58.105Z,6.80
2023-07-26T13:16:30.454Z,5.30
2023-07-26T13:18:58.502Z,6.20
2023-07-26T13:21:25.884Z,6.10
2023-07-26T13:23:53.313Z,8.90
2023-07-26T13:26:20.674Z,8.00
2023-07-26T13:28:48.975Z,7.10
2023-07-26T13:31:18.029Z,8.30
2023-07-26T13:33:50.826Z,5.90
2023-07-26T13:36:23.283Z,9.70
2023-07-26T13:38:50.888Z,8.30
2023-07-26T13:41:18.518Z,5.80
2023-07-26T13:43:45.921Z,5.20
2023-07-26T13:46:28.813Z,5.30
2023-07-26T13:49:00.172Z,7.10
2023-07-26T13:51:27.556Z,4.70
2023-07-26T13:53:54.897Z,10.70
2023-07-26T13:56:22.293Z,7.20
2023-07-26T13:58:49.682Z,5.00
2023-07-26T14:01:17.698Z,4.70
2023-07-26T14:03:45.427Z,5.40
2023-07-26T14:06:12.807Z,4.90
2023-07-26T14:08:40.134Z,6.70
2023-07-26T14:11:07.529Z,4.90
2023-07-26T14:13:34.924Z,6.90
2023-07-26T14:18:32.731Z,5.90
2023-07-26T14:21:00.309Z,7.10
2023-07-26T14:23:30.327Z,3.40
2023-07-26T14:25:57.698Z,5.30
2023-07-26T14:28:25.052Z,5.80
2023-07-26T14:30:52.750Z,3.60
2023-07-26T14:33:20.244Z,3.60
2023-07-26T14:35:48.206Z,4.10
2023-07-26T14:38:15.562Z,4.60
2023-07-26T14:40:42.927Z,4.00
2023-07-26T14:43:10.280Z,4.20
2023-07-26T14:45:37.616Z,7.10
2023-07-26T14:48:05.166Z,7.50
2023-07-26T14:50:32.515Z,3.40
2023-07-26T14:52:59.890Z,4.80
2023-07-26T14:55:28.702Z,6.80
2023-07-26T14:57:58.034Z,3.90
2023-07-26T15:00:25.535Z,8.40
2023-07-26T15:02:52.926Z,5.60
2023-07-26T15:05:20.497Z,5.80
2023-07-26T15:07:48.088Z,7.00
2023-07-26T15:10:17.450Z,5.60
2023-07-26T15:12:47.476Z,4.10
2023-07-26T15:15:15.859Z,4.90
2023-07-26T15:17:43.324Z,5.30
2023-07-26T15:20:11.975Z,12.30
2023-07-26T15:22:39.870Z,5.10
2023-07-26T15:25:07.556Z,4.60
2023-07-26T15:27:34.924Z,5.50
2023-07-26T15:30:04.468Z,5.20
2023-07-26T15:32:32.271Z,3.60
2023-07-26T15:34:59.765Z,3.90
2023-07-26T15:37:27.237Z,6.10
2023-07-26T15:39:54.762Z,2.90
2023-07-26T15:47:25.367Z,5.90
2023-07-26T15:52:23.399Z,5.60
2023-07-26T15:54:50.802Z,5.20
2023-07-26T15:57:18.154Z,5.60
2023-07-26T15:59:45.543Z,6.30
2023-07-26T16:02:13.296Z,7.10
2023-07-26T16:07:11.064Z,8.90
2023-07-26T16:09:38.476Z,9.50
2023-07-26T16:22:09.379Z,8.30
2023-07-26T16:24:36.799Z,11.90
2023-07-26T16:27:04.743Z,21.80
2023-07-26T16:29:33.894Z,10.30
2023-07-26T16:32:01.263Z,14.50
2023-07-26T16:34:29.389Z,9.10
2023-07-26T16:36:57.036Z,6.10
2023-07-26T16:39:24.392Z,5.50
2023-07-26T16:41:51.973Z,13.60
2023-07-26T16:44:19.368Z,18.40
2023-07-26T16:47:07.593Z,12.40
2023-07-26T16:49:34.307Z,10.60
2023-07-26T16:52:01.708Z,6.90
2023-07-26T16:54:29.158Z,14.40
2023-07-26T16:56:56.490Z,15.40
2023-07-26T16:59:23.848Z,13.60
2023-07-26T17:01:51.271Z,8.50
2023-07-26T17:04:18.790Z,7.20
2023-07-26T17:06:46.153Z,5.50
2023-07-26T17:09:13.599Z,7.30
2023-07-26T17:11:40.976Z,11.20
2023-07-26T17:14:08.325Z,11.40
2023-07-26T17:16:35.897Z,8.30
2023-07-26T17:19:03.804Z,10.10
2023-07-26T17:21:31.181Z,6.90
2023-07-26T17:23:58.563Z,15.10
2023-07-26T17:26:31.115Z,11.10
2023-07-26T17:28:58.740Z,7.80
2023-07-26T17:31:27.926Z,11.60
2023-07-26T17:33:55.905Z,12.20
2023-07-26T17:36:23.318Z,8.90
2023-07-26T17:38:51.378Z,10.90
2023-07-26T17:41:18.915Z,11.00
2023-07-26T17:43:47.144Z,9.30
2023-07-26T17:46:14.674Z,11.30
2023-07-26T17:48:42.189Z,8.70
2023-07-26T17:51:10.872Z,8.80
2023-07-26T17:53:38.557Z,12.10
2023-07-26T17:56:06.257Z,10.00
2023-07-26T17:58:34.243Z,10.30
2023-07-26T18:01:01.598Z,10.40
2023-07-26T18:03:29.692Z,11.50
2023-07-26T18:06:03.580Z,7.20
2023-07-26T18:08:31.009Z,8.10
2023-07-26T18:10:59.585Z,9.30
2023-07-26T18:13:27.325Z,9.40
2023-07-26T18:16:09.837Z,8.00
2023-07-26T18:18:37.454Z,9.20
2023-07-26T18:21:06.527Z,7.50
2023-07-26T18:23:34.229Z,23.30
2023-07-26T18:26:01.760Z,19.30
2023-07-26T18:28:29.229Z,14.10
2023-07-26T18:31:04.173Z,15.60
2023-07-26T18:33:31.865Z,8.00
2023-07-26T18:35:59.229Z,7.60
2023-07-26T18:38:26.698Z,8.30
2023-07-26T18:40:54.137Z,10.50
2023-07-26T18:43:24.543Z,13.70
2023-07-26T18:45:52.602Z,10.40
2023-07-26T18:48:23.126Z,10.20
2023-07-26T18:50:51.234Z,10.40
2023-07-26T18:53:18.900Z,9.80
2023-07-26T18:55:48.938Z,9.60
2023-07-26T18:58:16.506Z,10.20
2023-07-26T19:00:44.941Z,10.70
2023-07-26T19:03:12.385Z,13.20
2023-07-26T19:05:40.596Z,11.90
2023-07-26T19:08:08.232Z,9.80
2023-07-26T19:10:40.464Z,13.40
2023-07-26T19:13:08.436Z,9.60
2023-07-26T19:15:36.475Z,12.70
2023-07-26T19:18:04.434Z,14.80
2023-07-26T19:20:32.237Z,13.10
2023-07-26T19:23:04.196Z,18.20
2023-07-26T19:25:34.879Z,21.90
2023-07-26T19:28:02.513Z,13.50
2023-07-26T19:30:32.442Z,16.80
2023-07-26T19:32:59.890Z,12.80
2023-07-26T19:35:29.695Z,10.00
2023-07-26T19:37:57.281Z,14.30
2023-07-26T19:40:24.689Z,10.40
2023-07-26T19:42:52.045Z,11.10
2023-07-26T19:45:19.622Z,9.60
2023-07-26T19:47:48.065Z,13.20
2023-07-26T19:50:16.493Z,10.10
2023-07-26T19:52:44.132Z,10.90
2023-07-26T19:55:12.472Z,11.80
2023-07-26T19:57:39.945Z,11.10
2023-07-26T20:00:08.306Z,9.60
2023-07-26T20:02:41.760Z,8.00
2023-07-26T20:05:09.542Z,9.80
2023-07-26T20:07:36.834Z,15.00
2023-07-26T20:10:04.860Z,7.30
2023-07-26T20:12:32.240Z,4.70
2023-07-26T20:15:01.083Z,3.80
2023-07-26T20:17:30.731Z,3.00
2023-07-26T20:20:00.257Z,5.80
2023-07-26T20:22:27.759Z,6.20
2023-07-26T20:24:55.184Z,8.10
2023-07-26T20:27:22.788Z,3.60
2023-07-26T20:29:50.282Z,5.70
2023-07-26T20:32:17.629Z,5.60
2023-07-26T20:34:45.018Z,5.20
2023-07-26T20:37:12.382Z,5.60
2023-07-26T20:39:39.740Z,6.30
2023-07-26T20:42:07.394Z,6.20
2023-07-26T20:44:34.718Z,8.80
2023-07-26T20:47:02.271Z,6.90
2023-07-26T20:49:30.947Z,7.00
2023-07-26T20:51:58.236Z,6.10
2023-07-26T20:54:25.863Z,6.70
2023-07-26T20:56:53.305Z,8.50
2023-07-26T20:59:20.648Z,6.70
2023-07-26T21:01:50.314Z,8.60
2023-07-26T21:04:19.810Z,8.50
2023-07-26T21:06:47.159Z,10.60
2023-07-26T21:09:14.532Z,8.90
2023-07-26T21:11:41.873Z,7.40
2023-07-26T21:14:09.198Z,8.30
2023-07-26T21:16:36.827Z,6.00
2023-07-26T21:19:04.684Z,6.50
2023-07-26T21:21:32.337Z,6.50
2023-07-26T21:23:59.860Z,6.50
2023-07-26T21:26:27.295Z,6.00
2023-07-26T21:28:54.633Z,7.50
2023-07-26T21:33:19.740Z,4.70
2023-07-26T21:35:46.350Z,6.60
2023-07-26T21:38:14.042Z,7.00
2023-07-26T21:40:40.644Z,8.50
2023-07-26T21:43:07.214Z,5.50
2023-07-26T21:45:33.689Z,7.50
2023-07-26T21:48:02.356Z,6.10
2023-07-26T21:50:29.102Z,6.30
2023-07-26T21:52:56.129Z,6.20
2023-07-26T21:55:22.593Z,7.80
2023-07-26T21:57:49.081Z,4.90
2023-07-26T22:00:16.339Z,5.20
2023-07-26T22:02:43.223Z,7.90
2023-07-26T22:05:10.067Z,6.90
2023-07-26T22:07:37.042Z,9.00
2023-07-26T22:10:04.029Z,6.30
2023-07-26T22:12:30.688Z,8.30
2023-07-26T22:14:57.153Z,9.20
2023-07-26T22:17:23.592Z,5.70
2023-07-26T22:19:50.959Z,5.60
2023-07-26T22:22:17.492Z,6.10
2023-07-26T22:24:47.957Z,7.30
2023-07-26T22:27:14.389Z,5.60
2023-07-26T22:29:40.840Z,5.50
2023-07-26T22:32:08.322Z,9.30
2023-07-26T22:34:34.751Z,6.90
2023-07-26T22:37:01.155Z,7.30
2023-07-26T22:39:27.801Z,5.50
2023-07-26T22:41:54.279Z,5.30
2023-07-26T22:44:21.888Z,4.10
2023-07-26T22:46:48.495Z,4.90
2023-07-26T22:49:14.931Z,4.90
2023-07-26T22:51:41.411Z,5.30
2023-07-26T22:54:07.874Z,4.80
2023-07-26T22:56:34.707Z,7.90
2023-07-26T22:59:01.691Z,6.10
2023-07-26T23:01:28.358Z,6.30
2023-07-26T23:03:54.884Z,5.10
2023-07-26T23:06:21.374Z,9.00
2023-07-26T23:08:47.907Z,9.00
2023-07-26T23:11:14.323Z,10.00
2023-07-26T23:13:40.868Z,6.80
2023-07-26T23:16:07.619Z,8.40
2023-07-26T23:18:34.423Z,7.00
2023-07-26T23:21:00.887Z,9.60
2023-07-26T23:23:27.437Z,13.80
2023-07-26T23:25:53.982Z,15.00
2023-07-26T23:28:20.619Z,10.80
2023-07-26T23:30:48.335Z,10.20
2023-07-26T23:33:15.464Z,9.90
2023-07-26T23:35:45.623Z,9.00
2023-07-26T23:38:12.107Z,7.20
2023-07-26T23:40:38.578Z,10.50
2023-07-26T23:43:08.569Z,10.10
2023-07-26T23:45:35.761Z,9.30
2023-07-26T23:48:02.858Z,9.10
2023-07-26T23:50:29.689Z,13.60
2023-07-26T23:52:56.109Z,9.40
2023-07-26T23:55:23.132Z,12.20
2023-07-26T23:57:49.523Z,12.40
